createdAt,value
2019-02-14T00:00:23.900Z,48.78
2019-02-14T00:03:27.936Z,48.73
2019-02-14T00:06:31.998Z,48.72
2019-02-14T00:09:36.033Z,48.72
2019-02-14T00:12:40.092Z,48.74
2019-02-14T00:15:44.156Z,48.82
2019-02-14T00:18:48.192Z,48.85
2019-02-14T00:21:52.260Z,48.79
2019-02-14T00:24:56.301Z,48.96
2019-02-14T00:28:00.354Z,48.93
2019-02-14T00:31:04.413Z,48.85
2019-02-14T00:34:08.452Z,48.86
2019-02-14T00:37:12.512Z,48.87
2019-02-14T00:40:16.548Z,48.87
2019-02-14T00:43:20.600Z,48.95
2019-02-14T00:46:24.659Z,49.08
2019-02-14T00:49:28.697Z,49.07
2019-02-14T00:52:32.755Z,49.11
2019-02-14T00:55:36.808Z,49.02
2019-02-14T00:58:40.844Z,49.12
2019-02-14T01:01:44.905Z,49.10
2019-02-14T01:04:48.940Z,49.10
2019-02-14T01:07:53.001Z,49.07
2019-02-14T01:10:57.057Z,49.11
2019-02-14T01:14:01.104Z,49.11
2019-02-14T01:17:05.163Z,49.12
2019-02-14T01:20:09.204Z,49.20
2019-02-14T01:23:13.259Z,49.29
2019-02-14T01:26:17.317Z,49.27
2019-02-14T01:29:21.357Z,49.32
2019-02-14T01:32:25.423Z,49.28
2019-02-14T01:35:29.460Z,49.32
2019-02-14T01:38:33.515Z,49.31
2019-02-14T01:41:37.574Z,49.33
2019-02-14T01:44:41.694Z,49.25
2019-02-14T01:47:45.748Z,49.36
2019-02-14T01:50:49.808Z,49.25
2019-02-14T01:53:53.849Z,49.23
2019-02-14T01:56:57.912Z,49.35
2019-02-14T02:00:01.947Z,49.35
2019-02-14T02:03:06.009Z,49.35
2019-02-14T02:06:10.062Z,49.32
2019-02-14T02:09:14.101Z,49.41
2019-02-14T02:12:18.163Z,49.51
2019-02-14T02:15:22.198Z,49.53
2019-02-14T02:18:26.259Z,49.44
2019-02-14T02:21:30.342Z,49.44
2019-02-14T02:24:34.378Z,49.59
2019-02-14T02:27:38.546Z,49.44
2019-02-14T02:30:42.610Z,49.55
2019-02-14T02:33:46.666Z,49.51
2019-02-14T02:36:50.722Z,49.44
2019-02-14T02:39:54.759Z,49.65
2019-02-14T02:42:58.830Z,49.62
2019-02-14T02:46:02.891Z,49.56
2019-02-14T02:49:06.930Z,49.63
2019-02-14T02:52:10.983Z,49.60
2019-02-14T02:55:15.042Z,49.56
2019-02-14T02:58:19.099Z,49.69
2019-02-14T03:01:23.154Z,49.66
2019-02-14T03:04:27.188Z,49.75
2019-02-14T03:07:31.249Z,49.64
2019-02-14T03:10:35.287Z,49.54
2019-02-14T03:13:39.345Z,49.65
2019-02-14T03:16:43.410Z,49.75
2019-02-14T03:19:47.445Z,49.74
2019-02-14T03:22:51.500Z,49.83
2019-02-14T03:25:55.540Z,49.75
2019-02-14T03:28:59.597Z,49.81
2019-02-14T03:32:03.655Z,49.79
2019-02-14T03:35:08.125Z,49.74
2019-02-14T03:38:12.181Z,49.75
2019-02-14T03:41:16.238Z,49.75
2019-02-14T03:44:20.277Z,49.82
2019-02-14T03:47:24.332Z,49.76
2019-02-14T03:50:28.371Z,49.77
2019-02-14T03:53:32.425Z,49.84
2019-02-14T03:56:36.479Z,49.86
2019-02-14T03:59:40.519Z,49.90
2019-02-14T04:02:44.577Z,49.81
2019-02-14T04:05:48.617Z,49.93
2019-02-14T04:08:52.677Z,49.94
2019-02-14T04:11:56.732Z,49.89
2019-02-14T04:15:00.776Z,49.85
2019-02-14T04:18:04.830Z,49.84
2019-02-14T04:21:08.867Z,49.93
2019-02-14T04:24:12.921Z,49.94
2019-02-14T04:27:16.976Z,49.80
2019-02-14T04:30:21.016Z,49.69
2019-02-14T04:33:25.072Z,49.40
2019-02-14T04:36:35.858Z,49.33
2019-02-14T04:39:34.870Z,49.47
2019-02-14T04:42:38.937Z,49.38
2019-02-14T04:45:42.985Z,49.37
2019-02-14T04:48:47.033Z,49.29
2019-02-14T04:51:51.093Z,49.27
2019-02-14T04:54:55.128Z,49.23
2019-02-14T04:57:59.189Z,49.22
2019-02-14T05:01:03.226Z,49.18
2019-02-14T05:04:07.366Z,49.23
2019-02-14T05:07:11.427Z,49.20
2019-02-14T05:10:15.465Z,49.31
2019-02-14T05:13:19.525Z,49.40
2019-02-14T05:16:23.562Z,49.22
2019-02-14T05:19:27.620Z,49.13
2019-02-14T05:22:31.679Z,49.19
2019-02-14T05:25:35.749Z,49.32
2019-02-14T05:28:39.811Z,49.33
2019-02-14T05:31:43.870Z,49.49
2019-02-14T05:34:47.906Z,49.49
2019-02-14T05:37:51.963Z,49.37
2019-02-14T05:40:56.004Z,49.43
2019-02-14T05:44:00.062Z,49.50
2019-02-14T05:47:04.124Z,49.51
2019-02-14T05:50:12.728Z,49.42
2019-02-14T05:53:16.792Z,49.45
2019-02-14T05:56:20.833Z,49.45
2019-02-14T05:59:24.901Z,49.49
2019-02-14T06:02:28.959Z,49.43
2019-02-14T06:05:33.002Z,49.47
2019-02-14T06:08:37.075Z,49.44
2019-02-14T06:11:41.113Z,49.44
2019-02-14T06:14:45.173Z,49.39
2019-02-14T06:17:49.238Z,49.41
2019-02-14T06:20:53.272Z,49.41
2019-02-14T06:23:57.335Z,49.35
2019-02-14T06:27:01.398Z,49.43
2019-02-14T06:30:08.839Z,49.44
2019-02-14T06:33:12.896Z,49.40
2019-02-14T06:36:16.935Z,49.38
2019-02-14T06:39:20.998Z,49.49
2019-02-14T06:42:25.058Z,49.47
2019-02-14T06:45:29.097Z,49.46
2019-02-14T06:48:33.152Z,49.50
2019-02-14T06:51:37.189Z,49.54
2019-02-14T06:54:41.249Z,49.52
2019-02-14T06:57:45.309Z,49.46
2019-02-14T07:00:49.374Z,49.40
2019-02-14T07:03:53.401Z,49.41
2019-02-14T07:06:57.440Z,49.37
2019-02-14T07:10:01.501Z,49.35
2019-02-14T07:13:05.560Z,49.35
2019-02-14T07:16:09.780Z,49.38
2019-02-14T07:19:13.849Z,49.28
2019-02-14T07:22:17.901Z,49.39
2019-02-14T07:25:21.935Z,49.41
2019-02-14T07:28:25.991Z,49.41
2019-02-14T07:31:30.078Z,49.40
2019-02-14T07:34:34.140Z,49.41
2019-02-14T07:37:38.195Z,49.40
2019-02-14T07:40:42.233Z,49.54
2019-02-14T07:43:46.289Z,49.45
2019-02-14T07:46:50.326Z,49.40
2019-02-14T07:49:54.384Z,49.42
2019-02-14T07:52:58.446Z,49.47
2019-02-14T07:56:02.482Z,49.52
2019-02-14T07:59:06.544Z,49.42
2019-02-14T08:02:10.576Z,49.53
2019-02-14T08:05:14.633Z,49.47
2019-02-14T08:08:18.706Z,49.46
2019-02-14T08:11:22.729Z,49.42
2019-02-14T08:14:26.789Z,49.53
2019-02-14T08:17:30.849Z,49.52
2019-02-14T08:20:34.885Z,49.50
2019-02-14T08:23:38.945Z,49.56
2019-02-14T08:26:42.976Z,49.55
2019-02-14T08:29:47.038Z,49.49
2019-02-14T08:32:51.101Z,49.45
2019-02-14T08:35:55.141Z,49.43
2019-02-14T08:38:59.196Z,49.53
2019-02-14T08:42:03.238Z,49.58
2019-02-14T08:45:10.446Z,49.52
2019-02-14T08:48:14.492Z,49.54
2019-02-14T08:51:18.528Z,49.57
2019-02-14T08:54:22.584Z,49.46
2019-02-14T08:57:26.624Z,49.55
2019-02-14T09:00:30.684Z,49.57
2019-02-14T09:03:34.742Z,49.56
2019-02-14T09:06:38.776Z,49.50
2019-02-14T09:09:42.837Z,49.47
2019-02-14T09:12:46.893Z,49.51
2019-02-14T09:15:50.930Z,49.56
2019-02-14T09:18:54.992Z,49.55
2019-02-14T09:21:59.033Z,49.50
2019-02-14T09:25:03.259Z,49.52
2019-02-14T09:28:07.313Z,49.51
2019-02-14T09:31:11.348Z,49.64
2019-02-14T09:34:15.405Z,49.54
2019-02-14T09:37:19.440Z,49.59
2019-02-14T09:40:23.495Z,49.55
2019-02-14T09:43:29.770Z,49.59
2019-02-14T09:46:33.289Z,49.52
2019-02-14T09:49:37.348Z,49.62
2019-02-14T09:52:41.854Z,49.63
2019-02-14T09:55:45.909Z,49.56
2019-02-14T09:58:49.969Z,49.59
2019-02-14T10:01:54.005Z,49.59
2019-02-14T10:04:58.066Z,49.65
2019-02-14T10:08:02.124Z,49.60
2019-02-14T10:11:06.157Z,49.57
2019-02-14T10:14:10.214Z,49.50
2019-02-14T10:17:22.029Z,49.40
2019-02-14T10:20:20.010Z,49.54
2019-02-14T10:23:24.067Z,49.64
2019-02-14T10:26:28.105Z,49.66
2019-02-14T10:29:32.161Z,49.77
2019-02-14T10:32:36.197Z,49.71
2019-02-14T10:35:40.252Z,49.79
2019-02-14T10:38:44.313Z,49.88
2019-02-14T10:41:48.356Z,49.97
2019-02-14T10:44:52.418Z,50.04
2019-02-14T10:47:56.446Z,50.14
2019-02-14T10:51:00.517Z,50.06
2019-02-14T10:54:04.573Z,50.18
2019-02-14T10:57:08.610Z,50.32
2019-02-14T11:00:17.688Z,50.28
2019-02-14T11:03:21.915Z,50.36
2019-02-14T11:06:25.949Z,50.42
2019-02-14T11:09:30.014Z,50.43
2019-02-14T11:12:34.044Z,50.52
2019-02-14T11:15:38.113Z,50.56
2019-02-14T11:18:44.415Z,50.61
2019-02-14T11:21:47.908Z,50.66
2019-02-14T11:24:51.968Z,50.66
2019-02-14T11:27:55.999Z,50.67
2019-02-14T11:31:00.060Z,50.68
2019-02-14T11:34:04.112Z,50.73
2019-02-14T11:37:08.149Z,50.76
2019-02-14T11:40:15.269Z,50.80
2019-02-14T11:43:19.304Z,50.81
2019-02-14T11:46:23.369Z,50.85
2019-02-14T11:49:27.429Z,50.87
2019-02-14T11:52:31.464Z,50.83
2019-02-14T11:55:35.525Z,50.86
2019-02-14T11:58:39.586Z,50.89
2019-02-14T12:01:43.620Z,50.98
2019-02-14T12:04:47.681Z,50.97
2019-02-14T12:07:51.722Z,50.93
2019-02-14T12:10:55.776Z,51.03
2019-02-14T12:13:59.893Z,51.01
2019-02-14T12:17:03.876Z,51.01
2019-02-14T12:20:12.378Z,51.02
2019-02-14T12:23:15.407Z,51.03
2019-02-14T12:26:19.471Z,51.15
2019-02-14T12:29:24.427Z,51.18
2019-02-14T12:32:28.460Z,51.18
2019-02-14T12:35:32.527Z,51.19
2019-02-14T12:38:36.563Z,51.15
2019-02-14T12:41:40.623Z,51.22
2019-02-14T12:44:44.688Z,51.25
2019-02-14T12:47:48.724Z,51.31
2019-02-14T12:50:52.780Z,51.30
2019-02-14T12:53:56.839Z,51.36
2019-02-14T12:57:00.877Z,51.38
2019-02-14T13:00:17.119Z,51.38
2019-02-14T13:03:21.154Z,51.41
2019-02-14T13:06:25.213Z,51.42
2019-02-14T13:09:29.271Z,51.49
2019-02-14T13:12:33.312Z,51.49
2019-02-14T13:15:37.364Z,51.55
2019-02-14T13:18:41.401Z,51.58
2019-02-14T13:21:45.460Z,51.57
2019-02-14T13:24:49.517Z,51.65
2019-02-14T13:27:53.573Z,51.73
2019-02-14T13:30:57.786Z,51.75
2019-02-14T13:34:01.826Z,51.76
2019-02-14T13:37:06.153Z,51.66
2019-02-14T13:40:10.199Z,51.76
2019-02-14T13:43:14.229Z,51.76
2019-02-14T13:46:18.289Z,51.74
2019-02-14T13:49:22.348Z,51.69
2019-02-14T13:52:26.382Z,51.69
2019-02-14T13:55:30.445Z,51.78
2019-02-14T13:58:34.489Z,51.65
2019-02-14T14:01:38.545Z,51.73
2019-02-14T14:04:44.696Z,51.71
2019-02-14T14:07:48.340Z,51.67
2019-02-14T14:10:52.401Z,51.68
2019-02-14T14:13:56.443Z,51.65
2019-02-14T14:17:00.499Z,51.73
2019-02-14T14:20:05.894Z,51.74
2019-02-14T14:23:09.929Z,51.65
2019-02-14T14:26:13.985Z,51.60
2019-02-14T14:29:18.020Z,51.60
2019-02-14T14:32:22.081Z,51.67
2019-02-14T14:35:26.140Z,51.70
2019-02-14T14:38:30.177Z,51.59
2019-02-14T14:41:34.306Z,51.52
2019-02-14T14:44:40.005Z,51.64
2019-02-14T14:47:44.042Z,51.74
2019-02-14T14:50:48.098Z,51.48
2019-02-14T14:53:52.132Z,51.27
2019-02-14T14:56:56.189Z,51.21
2019-02-14T15:00:00.369Z,51.09
2019-02-14T15:03:04.360Z,51.00
2019-02-14T15:06:08.417Z,50.95
2019-02-14T15:09:12.452Z,50.86
2019-02-14T15:12:16.508Z,50.85
2019-02-14T15:15:20.565Z,50.79
2019-02-14T15:18:24.602Z,50.76
2019-02-14T15:21:28.660Z,50.72
2019-02-14T15:24:32.699Z,50.73
2019-02-14T15:27:36.760Z,50.71
2019-02-14T15:30:40.812Z,50.63
2019-02-14T15:33:44.848Z,50.63
2019-02-14T15:36:49.627Z,50.57
2019-02-14T15:39:54.670Z,50.54
2019-02-14T15:42:58.704Z,50.50
2019-02-14T15:46:02.765Z,50.48
2019-02-14T15:49:06.810Z,50.46
2019-02-14T15:52:10.869Z,50.40
2019-02-14T15:55:14.925Z,50.35
2019-02-14T15:58:18.965Z,50.35
2019-02-14T16:01:23.024Z,50.25
2019-02-14T16:04:28.799Z,50.20
2019-02-14T16:07:32.838Z,50.19
2019-02-14T16:10:36.869Z,50.13
2019-02-14T16:13:40.970Z,50.06
2019-02-14T16:16:45.755Z,49.99
2019-02-14T16:19:50.761Z,50.00
2019-02-14T16:22:54.820Z,49.96
2019-02-14T16:25:58.877Z,49.91
2019-02-14T16:29:03.748Z,49.88
2019-02-14T16:32:07.854Z,49.84
2019-02-14T16:35:11.913Z,49.85
2019-02-14T16:38:15.951Z,49.84
2019-02-14T16:41:20.009Z,49.80
2019-02-14T16:44:24.068Z,49.83
2019-02-14T16:47:28.117Z,48.04
2019-02-14T16:50:32.172Z,47.43
2019-02-14T16:53:36.207Z,47.06
2019-02-14T16:56:40.266Z,46.69
2019-02-14T16:59:44.305Z,46.32
2019-02-14T17:02:48.364Z,45.89
2019-02-14T17:05:52.422Z,46.25
2019-02-14T17:08:56.478Z,46.53
2019-02-14T17:12:00.518Z,46.67
2019-02-14T17:15:06.599Z,46.91
2019-02-14T17:18:10.657Z,47.01
2019-02-14T17:21:14.715Z,47.21
2019-02-14T17:24:18.754Z,47.30
2019-02-14T17:27:22.815Z,47.34
2019-02-14T17:30:26.887Z,47.37
2019-02-14T17:33:30.914Z,47.40
2019-02-14T17:36:34.982Z,47.52
2019-02-14T17:39:39.017Z,47.58
2019-02-14T17:42:43.083Z,47.64
2019-02-14T17:45:47.132Z,47.69
2019-02-14T17:48:51.169Z,47.62
2019-02-14T17:51:55.236Z,47.75
2019-02-14T17:54:59.272Z,47.67
2019-02-14T17:58:03.332Z,47.65
2019-02-14T18:01:07.393Z,47.46
2019-02-14T18:04:11.429Z,47.55
2019-02-14T18:07:15.490Z,47.54
2019-02-14T18:10:19.529Z,47.37
2019-02-14T18:13:23.580Z,47.25
2019-02-14T18:16:27.641Z,47.15
2019-02-14T18:19:31.691Z,47.11
2019-02-14T18:22:35.746Z,47.03
2019-02-14T18:25:39.780Z,47.02
2019-02-14T18:28:43.837Z,47.06
2019-02-14T18:31:47.892Z,46.99
2019-02-14T18:34:51.941Z,46.97
2019-02-14T18:37:55.997Z,46.94
2019-02-14T18:41:04.172Z,47.03
2019-02-14T18:44:05.792Z,47.06
2019-02-14T18:47:09.857Z,47.09
2019-02-14T18:50:14.339Z,47.20
2019-02-14T18:53:18.397Z,47.22
2019-02-14T18:56:22.431Z,47.30
2019-02-14T18:59:26.497Z,47.35
2019-02-14T19:02:30.555Z,47.39
2019-02-14T19:05:34.591Z,47.32
2019-02-14T19:08:38.651Z,47.36
2019-02-14T19:11:42.706Z,47.42
2019-02-14T19:14:46.746Z,47.43
2019-02-14T19:17:50.805Z,47.58
2019-02-14T19:20:54.841Z,47.51
2019-02-14T19:23:58.902Z,47.46
2019-02-14T19:27:02.959Z,47.60
2019-02-14T19:30:09.498Z,47.59
2019-02-14T19:33:13.821Z,47.62
2019-02-14T19:36:17.859Z,47.69
2019-02-14T19:39:21.917Z,47.73
2019-02-14T19:42:25.973Z,47.75
2019-02-14T19:45:36.271Z,47.75
2019-02-14T19:48:35.765Z,47.79
2019-02-14T19:51:39.802Z,47.77
2019-02-14T19:54:43.890Z,47.69
2019-02-14T19:57:47.950Z,47.61
2019-02-14T20:00:51.989Z,47.61
2019-02-14T20:03:56.054Z,47.58
2019-02-14T20:07:00.125Z,47.55
2019-02-14T20:10:07.005Z,47.62
2019-02-14T20:13:11.064Z,47.49
2019-02-14T20:16:15.104Z,47.55
2019-02-14T20:19:19.168Z,47.58
2019-02-14T20:22:23.230Z,47.45
2019-02-14T20:25:29.034Z,47.50
2019-02-14T20:28:33.091Z,47.48
2019-02-14T20:31:37.191Z,47.49
2019-02-14T20:34:41.620Z,47.49
2019-02-14T20:37:45.685Z,47.47
2019-02-14T20:40:49.724Z,47.53
2019-02-14T20:43:53.786Z,47.50
2019-02-14T20:46:57.821Z,47.46
2019-02-14T20:50:01.887Z,47.27
2019-02-14T20:53:05.983Z,47.58
2019-02-14T20:56:09.981Z,47.66
2019-02-14T20:59:14.054Z,47.61
2019-02-14T21:02:18.081Z,47.67
2019-02-14T21:05:22.145Z,47.65
2019-02-14T21:08:26.207Z,47.54
2019-02-14T21:11:30.241Z,47.76
2019-02-14T21:14:34.306Z,47.85
2019-02-14T21:17:38.363Z,47.89
2019-02-14T21:20:42.398Z,47.90
2019-02-14T21:23:46.458Z,47.84
2019-02-14T21:26:50.512Z,47.94
2019-02-14T21:29:54.568Z,47.79
2019-02-14T21:32:58.621Z,48.00
2019-02-14T21:36:02.687Z,47.92
2019-02-14T21:39:07.106Z,48.02
2019-02-14T21:42:20.912Z,48.02
2019-02-14T21:45:17.649Z,48.04
2019-02-14T21:48:21.701Z,48.15
2019-02-14T21:51:25.814Z,48.02
2019-02-14T21:54:29.877Z,48.08
2019-02-14T21:57:33.925Z,48.06
2019-02-14T22:00:37.992Z,48.11
2019-02-14T22:03:42.038Z,48.17
2019-02-14T22:06:46.094Z,48.08
2019-02-14T22:09:50.131Z,48.06
2019-02-14T22:12:54.173Z,48.12
2019-02-14T22:15:58.366Z,48.07
2019-02-14T22:19:02.457Z,47.97
2019-02-14T22:22:06.495Z,47.99
2019-02-14T22:25:11.055Z,48.00
2019-02-14T22:28:15.050Z,48.11
2019-02-14T22:31:19.120Z,48.18
2019-02-14T22:34:23.238Z,48.09
2019-02-14T22:37:27.273Z,48.19
2019-02-14T22:40:31.333Z,48.14
2019-02-14T22:43:35.371Z,48.13
2019-02-14T22:46:39.425Z,48.14
2019-02-14T22:49:43.485Z,48.12
2019-02-14T22:52:47.521Z,48.09
2019-02-14T22:55:51.577Z,48.10
2019-02-14T22:58:55.612Z,48.11
2019-02-14T23:01:59.668Z,48.02
2019-02-14T23:05:03.736Z,48.12
2019-02-14T23:08:07.783Z,48.07
2019-02-14T23:11:11.829Z,48.22
2019-02-14T23:14:15.892Z,48.16
2019-02-14T23:17:20.541Z,48.08
2019-02-14T23:20:24.593Z,48.13
2019-02-14T23:23:28.634Z,48.26
2019-02-14T23:26:32.688Z,48.18
2019-02-14T23:29:36.749Z,48.17
2019-02-14T23:32:40.796Z,48.24
2019-02-14T23:35:44.846Z,48.12
2019-02-14T23:38:48.884Z,48.12
2019-02-14T23:41:52.943Z,48.22
2019-02-14T23:44:57.000Z,48.15
2019-02-14T23:48:01.063Z,48.25
2019-02-14T23:51:05.112Z,48.24
2019-02-14T23:54:09.145Z,48.18
2019-02-14T23:57:13.208Z,48.23
